createdAt,value
2022-12-04T00:02:02.380Z,19.13
2022-12-04T00:08:05.796Z,20.40
2022-12-04T00:14:10.958Z,20.38
2022-12-04T00:20:14.459Z,19.50
2022-12-04T00:26:18.903Z,19.05
2022-12-04T00:32:23.698Z,19.15
2022-12-04T00:38:27.209Z,17.73
2022-12-04T00:44:31.081Z,19.27
2022-12-04T00:50:36.016Z,19.67
2022-12-04T00:56:39.394Z,20.50
2022-12-04T01:02:42.811Z,21.10
2022-12-04T01:08:47.772Z,19.10
2022-12-04T01:14:51.218Z,22.20
2022-12-04T01:20:54.676Z,19.80
2022-12-04T01:26:59.595Z,20.90
2022-12-04T01:33:02.944Z,21.83
2022-12-04T01:39:06.331Z,20.10
2022-12-04T01:45:28.474Z,20.42
2022-12-04T01:51:36.369Z,20.23
2022-12-04T01:57:39.719Z,21.30
2022-12-04T02:03:43.314Z,21.38
2022-12-04T02:09:54.019Z,18.88
2022-12-04T02:16:01.451Z,20.45
2022-12-04T02:22:10.821Z,21.35
2022-12-04T02:28:22.987Z,20.55
2022-12-04T02:34:28.612Z,20.95
2022-12-04T02:40:33.583Z,19.55
2022-12-04T02:46:40.232Z,19.75
2022-12-04T02:52:45.945Z,21.25
2022-12-04T02:58:52.804Z,19.65
2022-12-04T03:04:58.343Z,19.73
2022-12-04T03:11:02.346Z,19.65
2022-12-04T03:17:08.385Z,18.90
2022-12-04T03:23:14.782Z,20.23
2022-12-04T03:29:21.154Z,19.98
2022-12-04T03:35:25.810Z,19.50
2022-12-04T03:41:33.043Z,21.13
2022-12-04T03:47:38.822Z,24.17
2022-12-04T03:53:44.611Z,22.65
2022-12-04T03:59:55.948Z,22.30
2022-12-04T04:06:01.816Z,23.95
2022-12-04T04:12:08.715Z,24.98
2022-12-04T04:18:32.242Z,26.20
2022-12-04T04:24:39.928Z,24.90
2022-12-04T04:30:43.428Z,27.65
2022-12-04T04:36:52.904Z,25.48
2022-12-04T04:42:59.868Z,25.70
2022-12-04T04:49:04.748Z,25.00
2022-12-04T04:55:10.592Z,23.67
2022-12-04T05:01:15.213Z,24.35
2022-12-04T05:07:18.663Z,24.05
2022-12-04T05:13:23.762Z,22.45
2022-12-04T05:19:44.663Z,22.55
2022-12-04T05:25:48.033Z,23.77
2022-12-04T05:31:52.750Z,22.77
2022-12-04T05:37:56.986Z,22.52
2022-12-04T05:44:00.495Z,21.33
2022-12-04T05:50:05.754Z,22.27
2022-12-04T05:56:10.005Z,22.27
2022-12-04T06:02:13.376Z,22.77
2022-12-04T06:08:18.400Z,22.10
2022-12-04T06:14:21.853Z,21.63
2022-12-04T06:20:25.432Z,23.10
2022-12-04T06:26:30.262Z,22.20
2022-12-04T06:32:34.011Z,22.60
2022-12-04T06:38:37.413Z,21.90
2022-12-04T06:44:42.123Z,21.20
2022-12-04T06:50:45.850Z,22.88
2022-12-04T06:56:50.444Z,23.98
2022-12-04T07:02:55.319Z,22.48
2022-12-04T07:09:00.214Z,23.52
2022-12-04T07:15:03.691Z,23.45
2022-12-04T07:21:09.263Z,25.17
2022-12-04T07:27:12.584Z,21.30
2022-12-04T07:33:15.975Z,22.88
2022-12-04T07:39:20.716Z,23.25
2022-12-04T07:45:24.068Z,22.75
2022-12-04T07:51:28.652Z,23.88
2022-12-04T07:57:33.378Z,23.88
2022-12-04T08:03:37.557Z,23.23
2022-12-04T08:09:43.251Z,21.90
2022-12-04T08:15:47.999Z,25.45
2022-12-04T08:21:51.585Z,23.20
2022-12-04T08:27:55.240Z,25.00
2022-12-04T08:34:00.750Z,24.35
2022-12-04T08:40:04.178Z,26.55
2022-12-04T08:46:08.185Z,25.67
2022-12-04T08:52:13.214Z,26.17
2022-12-04T08:58:16.654Z,27.80
2022-12-04T09:04:20.305Z,25.35
2022-12-04T09:10:25.328Z,25.15
2022-12-04T09:16:28.839Z,26.17
2022-12-04T09:22:51.368Z,25.65
2022-12-04T09:28:58.029Z,25.05
2022-12-04T09:35:01.735Z,33.83
2022-12-04T09:41:07.541Z,27.38
2022-12-04T09:47:17.453Z,26.77
2022-12-04T09:53:24.589Z,26.10
2022-12-04T09:59:29.366Z,31.75
2022-12-04T10:05:41.834Z,28.67
2022-12-04T10:11:50.511Z,28.95
2022-12-04T10:18:01.609Z,27.05
2022-12-04T10:24:23.016Z,27.25
2022-12-04T10:30:28.124Z,27.27
2022-12-04T10:36:33.530Z,26.73
2022-12-04T10:42:41.292Z,28.98
2022-12-04T10:48:45.468Z,28.92
2022-12-04T10:54:50.478Z,28.95
2022-12-04T11:01:04.974Z,30.17
2022-12-04T11:07:09.852Z,30.92
2022-12-04T11:13:17.235Z,29.60
2022-12-04T11:19:26.417Z,28.80
2022-12-04T11:25:32.469Z,27.88
2022-12-04T11:31:35.879Z,29.70
2022-12-04T11:37:45.332Z,27.05
2022-12-04T11:43:55.233Z,26.90
2022-12-04T11:50:04.221Z,27.60
2022-12-04T11:56:14.664Z,27.15
2022-12-04T12:02:31.427Z,30.02
2022-12-04T12:08:39.934Z,28.38
2022-12-04T12:14:48.315Z,27.67
2022-12-04T12:20:57.244Z,27.17
2022-12-04T12:27:07.718Z,26.58
2022-12-04T12:33:18.609Z,29.23
2022-12-04T12:39:23.231Z,29.38
2022-12-04T12:45:30.554Z,28.02
2022-12-04T12:51:38.433Z,27.17
2022-12-04T12:57:43.405Z,24.08
2022-12-04T13:03:51.437Z,22.52
2022-12-04T13:10:00.084Z,23.08
2022-12-04T13:16:06.778Z,23.20
2022-12-04T13:22:14.973Z,24.52
2022-12-04T13:28:26.854Z,25.85
2022-12-04T13:34:40.928Z,28.63
2022-12-04T13:40:45.037Z,30.17
2022-12-04T13:46:54.492Z,27.75
2022-12-04T13:52:57.997Z,26.45
2022-12-04T13:59:03.152Z,25.17
2022-12-04T14:05:09.047Z,26.35
2022-12-04T14:11:15.598Z,26.85
2022-12-04T14:17:20.687Z,25.83
2022-12-04T14:23:27.298Z,25.65
2022-12-04T14:29:36.427Z,26.75
2022-12-04T14:35:45.989Z,27.27
2022-12-04T14:41:50.736Z,29.42
2022-12-04T14:48:00.864Z,29.05
2022-12-04T14:54:09.376Z,28.83
2022-12-04T15:00:18.588Z,29.27
2022-12-04T15:06:23.105Z,27.88
2022-12-04T15:12:36.518Z,27.42
2022-12-04T15:18:41.252Z,24.83
2022-12-04T15:24:44.627Z,24.30
2022-12-04T15:30:49.292Z,24.75
2022-12-04T15:36:59.425Z,22.30
2022-12-04T15:43:16.778Z,23.90
2022-12-04T15:49:21.045Z,23.92
2022-12-04T15:55:26.476Z,27.00
2022-12-04T16:01:39.446Z,25.40
2022-12-04T16:07:50.352Z,23.58
2022-12-04T16:14:05.817Z,26.92
2022-12-04T16:20:09.749Z,23.83
2022-12-04T16:26:14.484Z,24.35
2022-12-04T16:32:20.090Z,21.60
2022-12-04T16:38:24.018Z,23.15
2022-12-04T16:44:27.434Z,28.05
2022-12-04T16:50:32.251Z,24.38
2022-12-04T16:56:35.613Z,24.08
2022-12-04T17:02:39.143Z,21.80
2022-12-04T17:08:44.180Z,23.27
2022-12-04T17:14:47.588Z,23.90
2022-12-04T17:20:50.986Z,23.27
2022-12-04T17:26:55.765Z,22.98
2022-12-04T17:32:59.222Z,24.55
2022-12-04T17:39:02.646Z,22.23
2022-12-04T17:45:07.965Z,21.52
2022-12-04T17:51:12.592Z,20.40
2022-12-04T17:57:16.939Z,22.10
2022-12-04T18:03:21.766Z,21.88
2022-12-04T18:09:25.270Z,21.92
2022-12-04T18:15:29.241Z,20.70
2022-12-04T18:21:34.625Z,20.65
2022-12-04T18:27:41.842Z,20.50
2022-12-04T18:33:47.111Z,21.08
2022-12-04T18:39:52.500Z,20.77
2022-12-04T18:46:05.553Z,21.20
2022-12-04T18:52:10.571Z,23.23
2022-12-04T18:58:15.394Z,20.63
2022-12-04T19:04:20.453Z,22.33
2022-12-04T19:10:24.361Z,22.73
2022-12-04T19:16:29.706Z,25.38
2022-12-04T19:22:33.161Z,25.20
2022-12-04T19:28:37.026Z,27.02
2022-12-04T19:34:41.986Z,25.65
2022-12-04T19:40:45.638Z,24.10
2022-12-04T19:46:49.225Z,24.92
2022-12-04T19:52:54.013Z,25.42
2022-12-04T19:58:59.027Z,24.75
2022-12-04T20:05:02.552Z,26.08
2022-12-04T20:11:08.093Z,23.88
2022-12-04T20:17:11.855Z,23.88
2022-12-04T20:23:15.276Z,21.40
2022-12-04T20:29:21.408Z,22.42
2022-12-04T20:35:24.851Z,22.73
2022-12-04T20:41:29.007Z,30.33
2022-12-04T20:47:36.240Z,22.67
2022-12-04T20:53:39.705Z,22.08
2022-12-04T20:59:43.157Z,22.15
2022-12-04T21:05:51.365Z,22.63
2022-12-04T21:11:55.800Z,21.27
2022-12-04T21:18:02.249Z,21.65
2022-12-04T21:24:08.027Z,20.88
2022-12-04T21:30:11.864Z,20.92
2022-12-04T21:36:15.288Z,20.13
2022-12-04T21:42:32.821Z,20.67
2022-12-04T21:48:37.157Z,21.40
2022-12-04T21:54:40.684Z,22.45
2022-12-04T22:00:45.395Z,23.10
2022-12-04T22:06:48.756Z,26.02
2022-12-04T22:12:52.166Z,25.02
2022-12-04T22:18:57.423Z,27.42
2022-12-04T22:25:01.759Z,23.95
2022-12-04T22:31:05.989Z,21.95
2022-12-04T22:37:10.805Z,20.67
2022-12-04T22:43:15.482Z,19.48
2022-12-04T22:49:18.945Z,19.17
2022-12-04T22:55:23.682Z,19.02
2022-12-04T23:01:28.550Z,18.95
2022-12-04T23:07:31.985Z,18.23
2022-12-04T23:13:36.838Z,18.55
2022-12-04T23:19:40.352Z,17.13
2022-12-04T23:25:43.691Z,18.10
2022-12-04T23:31:48.489Z,17.77
2022-12-04T23:37:52.001Z,17.52
2022-12-04T23:43:55.894Z,18.42
2022-12-04T23:50:00.808Z,17.40
2022-12-04T23:56:06.398Z,18.92
